»·PEaware :: SKY492 KORS-KEAT

SKY492 :: KORS-KEAT

FLIGHT INFORMATION

Flight Status: Arrived
Operator:
Sky High Charters
More flights by this operator :: More flights under this callsign
Pilot: William N. (15320)
Aircraft: SOCATA TBM-900
(TBM9)
More flights by this aircraft type
Origin: KORS Orcas I
United States
Destination: KEAT Pangborn Meml
United States
More flights between these airports :: More routes between these airports
Route: FEBFA2 FEGBA SEA V2 ELN V25 EAT
File this flight plan on PilotEdge
Remarks: SKYHIGH #3
Altitude:
(Current/Filed)
9,000ft
Speed:
(Current/Filed)
225kts
Departed: 23-Mar-19 12:08 PM
Arrived: 23-Mar-19 01:04 PM
Distance/Time
Traveled:
134nm/0:56
Distance/Time
To Go:
Arrived

Flight Plot

Page will automatically refresh every two minutes.

Flight plan parsing failed; only flown route is shown


Map Options




Map Legend


Flown Route
Filed Route
Departure Airport
Arrival Airport
Navaid (VOR, NDB)
Fix

Horizontal Profiles

Position Reports

Time Latitude Longitude Heading Altitude Ground
Speed
23-Mar-19 11:59 48.705017 -122.909677 353 36ft 0kts
23-Mar-19 12:00 48.705017 -122.909677 353 36ft 0kts
23-Mar-19 12:01 48.705017 -122.909677 353 36ft 0kts
23-Mar-19 12:02 48.705017 -122.909677 353 36ft 0kts
23-Mar-19 12:03 48.705838 -122.910007 0 38ft 6kts
23-Mar-19 12:04 48.708225 -122.910015 359 24ft 16kts
23-Mar-19 12:05 48.710847 -122.909983 359 5ft 21kts
23-Mar-19 12:06 48.711972 -122.910572 181 4ft 4kts
23-Mar-19 12:07 48.693279 -122.910736 177 694ft 109kts
23-Mar-19 12:08 48.658936 -122.909116 180 2327ft 128kts
23-Mar-19 12:09 48.622879 -122.909812 180 4700ft 128kts
23-Mar-19 12:10 48.586728 -122.910560 181 6968ft 132kts
23-Mar-19 12:11 48.547747 -122.911408 181 9042ft 169kts
23-Mar-19 12:12 48.488915 -122.888938 159 9016ft 244kts
23-Mar-19 12:13 48.421989 -122.851302 160 9002ft 257kts
23-Mar-19 12:14 48.353547 -122.813000 160 9000ft 259kts
23-Mar-19 12:15 48.285288 -122.774911 160 8998ft 255kts
23-Mar-19 12:16 48.217735 -122.737333 160 8999ft 254kts
23-Mar-19 12:17 48.151666 -122.695672 138 8988ft 255kts
23-Mar-19 12:18 48.098313 -122.622671 138 8999ft 255kts
23-Mar-19 12:19 48.045113 -122.549542 138 8999ft 255kts
23-Mar-19 12:20 47.991721 -122.476353 138 8999ft 255kts
23-Mar-19 12:21 47.938879 -122.404131 138 8999ft 256kts
23-Mar-19 12:22 47.885870 -122.331888 139 9000ft 256kts
23-Mar-19 12:23 47.833153 -122.260249 139 9000ft 256kts
23-Mar-19 12:24 47.780234 -122.188543 139 9000ft 256kts
23-Mar-19 12:25 47.727285 -122.117003 139 8995ft 256kts
23-Mar-19 12:26 47.673918 -122.045103 139 8985ft 256kts
23-Mar-19 12:27 47.620270 -121.973037 139 8975ft 258kts
23-Mar-19 12:28 47.566127 -121.900506 139 8962ft 258kts
23-Mar-19 12:29 47.511770 -121.827931 138 8964ft 257kts
23-Mar-19 12:30 47.457568 -121.755731 138 8947ft 259kts
23-Mar-19 12:31 47.402839 -121.683062 138 8934ft 259kts
23-Mar-19 12:32 47.348422 -121.611015 138 8917ft 257kts
23-Mar-19 12:33 47.294026 -121.539211 138 8918ft 258kts
23-Mar-19 12:34 47.250342 -121.456555 108 9011ft 259kts
23-Mar-19 12:35 47.227532 -121.353100 108 9000ft 261kts
23-Mar-19 12:36 47.204917 -121.251625 108 8999ft 261kts
23-Mar-19 12:37 47.181735 -121.148125 108 8996ft 261kts
23-Mar-19 12:38 47.158444 -121.044661 108 8989ft 261kts
23-Mar-19 12:39 47.135101 -120.941427 108 8981ft 261kts
23-Mar-19 12:40 47.111803 -120.838893 108 8981ft 261kts
23-Mar-19 12:41 47.088303 -120.735961 108 8981ft 261kts
23-Mar-19 12:42 47.064805 -120.633525 108 8981ft 261kts
23-Mar-19 12:43 47.041272 -120.531428 108 8981ft 261kts
23-Mar-19 12:44 47.053175 -120.439610 23 8999ft 258kts
23-Mar-19 12:45 47.120201 -120.395576 22 8982ft 260kts
23-Mar-19 12:46 47.187265 -120.351449 22 9000ft 259kts
23-Mar-19 12:47 47.253024 -120.308043 23 8999ft 259kts
23-Mar-19 12:48 47.320057 -120.263684 23 8999ft 259kts
23-Mar-19 12:49 47.383583 -120.221540 23 8985ft 225kts
23-Mar-19 12:50 47.399950 -120.139494 89 7664ft 223kts
23-Mar-19 12:51 47.400233 -120.045794 89 6146ft 224kts
23-Mar-19 12:52 47.399120 -119.957171 99 5836ft 209kts
23-Mar-19 12:53 47.369823 -119.880572 139 5003ft 206kts
23-Mar-19 12:54 47.318147 -119.849271 176 5007ft 197kts
23-Mar-19 12:55 47.265234 -119.868933 213 5004ft 192kts
23-Mar-19 12:56 47.233961 -119.937288 259 3906ft 202kts
23-Mar-19 12:57 47.245114 -120.014544 304 3905ft 189kts
23-Mar-19 12:58 47.288074 -120.060984 332 3345ft 202kts
23-Mar-19 12:59 47.334249 -120.096198 332 3028ft 148kts
23-Mar-19 13:00 47.362027 -120.125711 294 2427ft 109kts
23-Mar-19 13:01 47.369922 -120.163091 304 2263ft 91kts
23-Mar-19 13:02 47.387574 -120.190531 314 1495ft 89kts
23-Mar-19 13:03 47.399499 -120.208047 315 1252ft 31kts
23-Mar-19 13:04 47.400869 -120.208363 68 1252ft 4kts
23-Mar-19 13:05 47.401017 -120.206389 131 1252ft 0kts

Navigation Log

Ident Type
Flight plan parsing failed, navigation log unavailable